sensor_id;sensor_type;location;lat;lon;timestamp;P1;durP1;ratioP1;P2;durP2;ratioP2
3843;SDS011;1937;51.444;6.484;2023-06-10T00:01:52;17.10;;;7.20;;
3843;SDS011;1937;51.444;6.484;2023-06-10T00:04:20;20.60;;;7.30;;
3843;SDS011;1937;51.444;6.484;2023-06-10T00:06:47;18.93;;;7.60;;
3843;SDS011;1937;51.444;6.484;2023-06-10T00:09:16;15.70;;;7.57;;
3843;SDS011;1937;51.444;6.484;2023-06-10T00:11:43;16.63;;;7.70;;
3843;SDS011;1937;51.444;6.484;2023-06-10T00:14:10;18.30;;;7.90;;
3843;SDS011;1937;51.444;6.484;2023-06-10T00:16:37;20.67;;;7.40;;
3843;SDS011;1937;51.444;6.484;2023-06-10T00:19:04;18.60;;;7.30;;
3843;SDS011;1937;51.444;6.484;2023-06-10T00:21:33;16.33;;;7.13;;
3843;SDS011;1937;51.444;6.484;2023-06-10T00:24:02;19.23;;;8.33;;
3843;SDS011;1937;51.444;6.484;2023-06-10T00:26:31;15.83;;;8.23;;
3843;SDS011;1937;51.444;6.484;2023-06-10T00:28:58;17.40;;;7.60;;
3843;SDS011;1937;51.444;6.484;2023-06-10T00:31:25;18.20;;;7.40;;
3843;SDS011;1937;51.444;6.484;2023-06-10T00:33:52;16.20;;;6.73;;
3843;SDS011;1937;51.444;6.484;2023-06-10T00:36:19;16.83;;;7.30;;
3843;SDS011;1937;51.444;6.484;2023-06-10T00:38:45;16.73;;;8.63;;
3843;SDS011;1937;51.444;6.484;2023-06-10T00:41:12;16.27;;;7.30;;
3843;SDS011;1937;51.444;6.484;2023-06-10T00:43:40;28.93;;;9.17;;
3843;SDS011;1937;51.444;6.484;2023-06-10T00:46:07;17.77;;;7.73;;
3843;SDS011;1937;51.444;6.484;2023-06-10T00:48:34;16.63;;;7.10;;
3843;SDS011;1937;51.444;6.484;2023-06-10T00:51:01;17.10;;;7.83;;
3843;SDS011;1937;51.444;6.484;2023-06-10T00:53:28;17.20;;;8.03;;
3843;SDS011;1937;51.444;6.484;2023-06-10T00:55:55;18.10;;;7.83;;
3843;SDS011;1937;51.444;6.484;2023-06-10T00:58:22;16.90;;;7.90;;
3843;SDS011;1937;51.444;6.484;2023-06-10T01:00:50;17.50;;;7.23;;
3843;SDS011;1937;51.444;6.484;2023-06-10T01:03:18;22.40;;;8.13;;
3843;SDS011;1937;51.444;6.484;2023-06-10T01:05:45;16.77;;;8.90;;
3843;SDS011;1937;51.444;6.484;2023-06-10T01:08:23;18.80;;;8.63;;
3843;SDS011;1937;51.444;6.484;2023-06-10T01:11:00;18.83;;;7.70;;
3843;SDS011;1937;51.444;6.484;2023-06-10T01:13:30;20.60;;;8.90;;
3843;SDS011;1937;51.444;6.484;2023-06-10T01:15:59;17.80;;;7.40;;
3843;SDS011;1937;51.444;6.484;2023-06-10T01:18:29;16.53;;;8.13;;
3843;SDS011;1937;51.444;6.484;2023-06-10T01:20:57;19.40;;;8.90;;
3843;SDS011;1937;51.444;6.484;2023-06-10T01:23:25;18.73;;;9.13;;
3843;SDS011;1937;51.444;6.484;2023-06-10T01:25:53;16.20;;;9.10;;
3843;SDS011;1937;51.444;6.484;2023-06-10T01:28:25;18.20;;;9.27;;
3843;SDS011;1937;51.444;6.484;2023-06-10T01:30:59;19.40;;;9.30;;
3843;SDS011;1937;51.444;6.484;2023-06-10T01:33:29;19.97;;;9.93;;
3843;SDS011;1937;51.444;6.484;2023-06-10T01:36:00;22.57;;;9.03;;
3843;SDS011;1937;51.444;6.484;2023-06-10T01:38:31;17.33;;;9.17;;
3843;SDS011;1937;51.444;6.484;2023-06-10T01:41:02;18.90;;;9.33;;
3843;SDS011;1937;51.444;6.484;2023-06-10T01:43:31;22.83;;;8.80;;
3843;SDS011;1937;51.444;6.484;2023-06-10T01:45:59;18.07;;;8.60;;
3843;SDS011;1937;51.444;6.484;2023-06-10T01:48:26;14.87;;;7.80;;
3843;SDS011;1937;51.444;6.484;2023-06-10T01:50:53;19.43;;;8.40;;
3843;SDS011;1937;51.444;6.484;2023-06-10T01:53:20;16.03;;;8.27;;
3843;SDS011;1937;51.444;6.484;2023-06-10T01:55:48;15.50;;;8.67;;
3843;SDS011;1937;51.444;6.484;2023-06-10T01:58:15;14.90;;;8.23;;
3843;SDS011;1937;51.444;6.484;2023-06-10T02:00:42;15.13;;;7.63;;
3843;SDS011;1937;51.444;6.484;2023-06-10T02:03:08;15.97;;;8.50;;
3843;SDS011;1937;51.444;6.484;2023-06-10T02:05:35;17.23;;;8.20;;
3843;SDS011;1937;51.444;6.484;2023-06-10T02:08:02;16.63;;;8.33;;
3843;SDS011;1937;51.444;6.484;2023-06-10T02:10:28;23.23;;;9.20;;
3843;SDS011;1937;51.444;6.484;2023-06-10T02:12:56;14.87;;;8.27;;
3843;SDS011;1937;51.444;6.484;2023-06-10T02:15:23;17.17;;;8.13;;
3843;SDS011;1937;51.444;6.484;2023-06-10T02:17:50;19.20;;;9.27;;
3843;SDS011;1937;51.444;6.484;2023-06-10T02:20:17;15.53;;;8.80;;
3843;SDS011;1937;51.444;6.484;2023-06-10T02:22:44;17.00;;;8.37;;
3843;SDS011;1937;51.444;6.484;2023-06-10T02:25:11;19.53;;;9.00;;
3843;SDS011;1937;51.444;6.484;2023-06-10T02:27:38;16.23;;;9.10;;
3843;SDS011;1937;51.444;6.484;2023-06-10T02:30:06;16.43;;;9.90;;
3843;SDS011;1937;51.444;6.484;2023-06-10T02:32:35;18.40;;;10.03;;
3843;SDS011;1937;51.444;6.484;2023-06-10T02:35:02;15.80;;;8.93;;
3843;SDS011;1937;51.444;6.484;2023-06-10T02:37:29;16.33;;;9.20;;
3843;SDS011;1937;51.444;6.484;2023-06-10T02:39:55;14.83;;;8.50;;
3843;SDS011;1937;51.444;6.484;2023-06-10T02:42:22;14.77;;;9.07;;
3843;SDS011;1937;51.444;6.484;2023-06-10T02:44:48;16.20;;;9.10;;
3843;SDS011;1937;51.444;6.484;2023-06-10T02:47:16;15.10;;;8.83;;
3843;SDS011;1937;51.444;6.484;2023-06-10T02:49:43;16.97;;;9.27;;
3843;SDS011;1937;51.444;6.484;2023-06-10T02:52:09;16.57;;;10.17;;
3843;SDS011;1937;51.444;6.484;2023-06-10T02:54:36;16.30;;;10.17;;
3843;SDS011;1937;51.444;6.484;2023-06-10T02:57:03;19.37;;;10.33;;
3843;SDS011;1937;51.444;6.484;2023-06-10T02:59:31;23.23;;;9.57;;
3843;SDS011;1937;51.444;6.484;2023-06-10T03:01:57;16.87;;;9.50;;
3843;SDS011;1937;51.444;6.484;2023-06-10T03:04:27;15.13;;;9.50;;
3843;SDS011;1937;51.444;6.484;2023-06-10T03:06:55;15.40;;;9.10;;
3843;SDS011;1937;51.444;6.484;2023-06-10T03:09:22;17.20;;;9.40;;
3843;SDS011;1937;51.444;6.484;2023-06-10T03:11:49;19.00;;;9.90;;
3843;SDS011;1937;51.444;6.484;2023-06-10T03:14:15;20.43;;;11.07;;
3843;SDS011;1937;51.444;6.484;2023-06-10T03:16:42;14.97;;;9.50;;
3843;SDS011;1937;51.444;6.484;2023-06-10T03:19:10;23.83;;;12.47;;
3843;SDS011;1937;51.444;6.484;2023-06-10T03:21:38;19.17;;;10.40;;
3843;SDS011;1937;51.444;6.484;2023-06-10T03:24:06;18.10;;;10.53;;
3843;SDS011;1937;51.444;6.484;2023-06-10T03:26:33;29.97;;;11.03;;
3843;SDS011;1937;51.444;6.484;2023-06-10T03:28:59;17.13;;;10.00;;
3843;SDS011;1937;51.444;6.484;2023-06-10T03:31:26;21.00;;;10.33;;
3843;SDS011;1937;51.444;6.484;2023-06-10T03:33:53;19.80;;;10.60;;
3843;SDS011;1937;51.444;6.484;2023-06-10T03:36:19;20.80;;;9.97;;
3843;SDS011;1937;51.444;6.484;2023-06-10T03:38:47;18.50;;;10.60;;
3843;SDS011;1937;51.444;6.484;2023-06-10T03:41:16;16.90;;;10.90;;
3843;SDS011;1937;51.444;6.484;2023-06-10T03:43:43;21.90;;;12.00;;
3843;SDS011;1937;51.444;6.484;2023-06-10T03:46:10;20.63;;;11.30;;
3843;SDS011;1937;51.444;6.484;2023-06-10T03:48:36;24.10;;;13.40;;
3843;SDS011;1937;51.444;6.484;2023-06-10T03:51:03;22.73;;;11.33;;
3843;SDS011;1937;51.444;6.484;2023-06-10T03:53:30;27.43;;;10.97;;
3843;SDS011;1937;51.444;6.484;2023-06-10T03:55:58;18.30;;;11.00;;
3843;SDS011;1937;51.444;6.484;2023-06-10T03:58:25;18.90;;;10.80;;
3843;SDS011;1937;51.444;6.484;2023-06-10T04:00:52;18.00;;;11.43;;
3843;SDS011;1937;51.444;6.484;2023-06-10T04:03:20;21.50;;;11.97;;
3843;SDS011;1937;51.444;6.484;2023-06-10T04:05:48;19.20;;;11.50;;
3843;SDS011;1937;51.444;6.484;2023-06-10T04:08:15;20.53;;;12.30;;
3843;SDS011;1937;51.444;6.484;2023-06-10T04:10:41;22.53;;;13.17;;
3843;SDS011;1937;51.444;6.484;2023-06-10T04:13:09;21.67;;;11.73;;
3843;SDS011;1937;51.444;6.484;2023-06-10T04:15:36;21.40;;;11.50;;
3843;SDS011;1937;51.444;6.484;2023-06-10T04:18:04;20.07;;;12.27;;
3843;SDS011;1937;51.444;6.484;2023-06-10T04:20:30;20.77;;;12.17;;
3843;SDS011;1937;51.444;6.484;2023-06-10T04:22:57;25.07;;;13.40;;
3843;SDS011;1937;51.444;6.484;2023-06-10T04:25:24;39.77;;;13.20;;
3843;SDS011;1937;51.444;6.484;2023-06-10T04:27:51;29.07;;;13.70;;
3843;SDS011;1937;51.444;6.484;2023-06-10T04:30:19;30.67;;;13.83;;
3843;SDS011;1937;51.444;6.484;2023-06-10T04:32:47;25.17;;;13.80;;
3843;SDS011;1937;51.444;6.484;2023-06-10T04:35:15;22.10;;;14.77;;
3843;SDS011;1937;51.444;6.484;2023-06-10T04:37:42;22.27;;;13.83;;
3843;SDS011;1937;51.444;6.484;2023-06-10T04:40:09;24.50;;;14.80;;
3843;SDS011;1937;51.444;6.484;2023-06-10T04:42:36;19.77;;;11.73;;
3843;SDS011;1937;51.444;6.484;2023-06-10T04:45:03;21.23;;;12.20;;
3843;SDS011;1937;51.444;6.484;2023-06-10T04:47:32;21.63;;;13.37;;
3843;SDS011;1937;51.444;6.484;2023-06-10T04:49:59;22.40;;;13.00;;
3843;SDS011;1937;51.444;6.484;2023-06-10T04:52:26;20.30;;;12.00;;
3843;SDS011;1937;51.444;6.484;2023-06-10T04:54:52;22.13;;;11.93;;
3843;SDS011;1937;51.444;6.484;2023-06-10T04:57:19;19.23;;;12.17;;
3843;SDS011;1937;51.444;6.484;2023-06-10T04:59:46;23.43;;;13.47;;
3843;SDS011;1937;51.444;6.484;2023-06-10T05:02:13;20.10;;;13.20;;
3843;SDS011;1937;51.444;6.484;2023-06-10T05:04:41;20.07;;;12.20;;
3843;SDS011;1937;51.444;6.484;2023-06-10T05:07:07;20.00;;;12.23;;
3843;SDS011;1937;51.444;6.484;2023-06-10T05:09:34;24.53;;;13.87;;
3843;SDS011;1937;51.444;6.484;2023-06-10T05:12:01;22.93;;;13.20;;
3843;SDS011;1937;51.444;6.484;2023-06-10T05:14:28;23.60;;;12.90;;
3843;SDS011;1937;51.444;6.484;2023-06-10T05:16:54;18.90;;;11.60;;
3843;SDS011;1937;51.444;6.484;2023-06-10T05:19:21;25.93;;;12.87;;
3843;SDS011;1937;51.444;6.484;2023-06-10T05:21:49;23.47;;;11.37;;
3843;SDS011;1937;51.444;6.484;2023-06-10T05:24:16;18.67;;;11.00;;
3843;SDS011;1937;51.444;6.484;2023-06-10T05:26:42;21.90;;;12.20;;
3843;SDS011;1937;51.444;6.484;2023-06-10T05:29:09;20.57;;;11.20;;
3843;SDS011;1937;51.444;6.484;2023-06-10T05:31:36;21.07;;;12.00;;
3843;SDS011;1937;51.444;6.484;2023-06-10T05:34:02;26.33;;;12.30;;
3843;SDS011;1937;51.444;6.484;2023-06-10T05:36:29;24.33;;;12.13;;
3843;SDS011;1937;51.444;6.484;2023-06-10T05:38:57;19.10;;;11.30;;
3843;SDS011;1937;51.444;6.484;2023-06-10T05:41:23;21.70;;;10.10;;
3843;SDS011;1937;51.444;6.484;2023-06-10T05:43:50;19.97;;;10.60;;
3843;SDS011;1937;51.444;6.484;2023-06-10T05:46:17;20.23;;;11.27;;
3843;SDS011;1937;51.444;6.484;2023-06-10T05:48:43;21.13;;;10.30;;
3843;SDS011;1937;51.444;6.484;2023-06-10T05:51:10;16.90;;;9.30;;
3843;SDS011;1937;51.444;6.484;2023-06-10T05:53:36;19.90;;;11.30;;
3843;SDS011;1937;51.444;6.484;2023-06-10T05:56:05;20.87;;;11.10;;
3843;SDS011;1937;51.444;6.484;2023-06-10T05:58:31;19.23;;;10.50;;
3843;SDS011;1937;51.444;6.484;2023-06-10T06:00:58;18.90;;;9.80;;
3843;SDS011;1937;51.444;6.484;2023-06-10T06:03:25;20.80;;;9.93;;
3843;SDS011;1937;51.444;6.484;2023-06-10T06:05:53;26.60;;;11.07;;
3843;SDS011;1937;51.444;6.484;2023-06-10T06:08:19;18.90;;;9.90;;
3843;SDS011;1937;51.444;6.484;2023-06-10T06:10:46;20.73;;;10.03;;
3843;SDS011;1937;51.444;6.484;2023-06-10T06:13:14;21.87;;;10.70;;
3843;SDS011;1937;51.444;6.484;2023-06-10T06:15:41;21.87;;;10.37;;
3843;SDS011;1937;51.444;6.484;2023-06-10T06:18:07;23.70;;;9.67;;
3843;SDS011;1937;51.444;6.484;2023-06-10T06:20:34;22.50;;;8.83;;
3843;SDS011;1937;51.444;6.484;2023-06-10T06:23:01;21.67;;;9.10;;
3843;SDS011;1937;51.444;6.484;2023-06-10T06:25:27;24.03;;;8.10;;
3843;SDS011;1937;51.444;6.484;2023-06-10T06:27:54;19.43;;;8.50;;
3843;SDS011;1937;51.444;6.484;2023-06-10T06:30:22;26.20;;;8.63;;
3843;SDS011;1937;51.444;6.484;2023-06-10T06:32:48;24.90;;;8.60;;
3843;SDS011;1937;51.444;6.484;2023-06-10T06:35:16;19.63;;;8.40;;
3843;SDS011;1937;51.444;6.484;2023-06-10T06:37:43;22.30;;;8.37;;
3843;SDS011;1937;51.444;6.484;2023-06-10T06:40:10;25.50;;;8.70;;
3843;SDS011;1937;51.444;6.484;2023-06-10T06:42:38;25.50;;;8.27;;
3843;SDS011;1937;51.444;6.484;2023-06-10T06:45:05;24.63;;;8.20;;
3843;SDS011;1937;51.444;6.484;2023-06-10T06:47:33;25.70;;;8.90;;
3843;SDS011;1937;51.444;6.484;2023-06-10T06:50:00;28.90;;;9.07;;
3843;SDS011;1937;51.444;6.484;2023-06-10T06:52:27;25.00;;;8.00;;
3843;SDS011;1937;51.444;6.484;2023-06-10T06:54:54;25.60;;;7.90;;
3843;SDS011;1937;51.444;6.484;2023-06-10T06:57:21;28.33;;;8.90;;
3843;SDS011;1937;51.444;6.484;2023-06-10T06:59:48;28.73;;;8.50;;
3843;SDS011;1937;51.444;6.484;2023-06-10T07:02:14;25.70;;;8.00;;
3843;SDS011;1937;51.444;6.484;2023-06-10T07:04:42;27.20;;;7.70;;
3843;SDS011;1937;51.444;6.484;2023-06-10T07:07:10;29.10;;;8.07;;
3843;SDS011;1937;51.444;6.484;2023-06-10T07:09:37;26.90;;;7.50;;
3843;SDS011;1937;51.444;6.484;2023-06-10T07:12:04;33.80;;;9.27;;
3843;SDS011;1937;51.444;6.484;2023-06-10T07:14:31;30.47;;;7.17;;
3843;SDS011;1937;51.444;6.484;2023-06-10T07:16:58;29.67;;;8.00;;
3843;SDS011;1937;51.444;6.484;2023-06-10T07:19:24;29.10;;;7.00;;
3843;SDS011;1937;51.444;6.484;2023-06-10T07:21:52;32.07;;;8.53;;
3843;SDS011;1937;51.444;6.484;2023-06-10T07:24:19;30.60;;;7.70;;
3843;SDS011;1937;51.444;6.484;2023-06-10T07:26:46;30.23;;;6.93;;
3843;SDS011;1937;51.444;6.484;2023-06-10T07:29:12;34.90;;;7.90;;
3843;SDS011;1937;51.444;6.484;2023-06-10T07:31:40;31.87;;;7.33;;
3843;SDS011;1937;51.444;6.484;2023-06-10T07:34:07;31.80;;;7.40;;
3843;SDS011;1937;51.444;6.484;2023-06-10T07:36:33;39.00;;;8.70;;
3843;SDS011;1937;51.444;6.484;2023-06-10T07:39:02;35.70;;;8.30;;
3843;SDS011;1937;51.444;6.484;2023-06-10T07:41:30;38.67;;;7.97;;
3843;SDS011;1937;51.444;6.484;2023-06-10T07:43:57;37.87;;;8.10;;
3843;SDS011;1937;51.444;6.484;2023-06-10T07:46:24;33.53;;;8.07;;
3843;SDS011;1937;51.444;6.484;2023-06-10T07:48:52;33.33;;;7.50;;
3843;SDS011;1937;51.444;6.484;2023-06-10T07:51:20;33.93;;;6.87;;
3843;SDS011;1937;51.444;6.484;2023-06-10T07:53:47;33.13;;;7.00;;
3843;SDS011;1937;51.444;6.484;2023-06-10T07:56:15;34.70;;;8.20;;
3843;SDS011;1937;51.444;6.484;2023-06-10T07:58:42;32.50;;;7.53;;
3843;SDS011;1937;51.444;6.484;2023-06-10T08:01:08;36.63;;;8.40;;
3843;SDS011;1937;51.444;6.484;2023-06-10T08:03:35;34.63;;;7.77;;
3843;SDS011;1937;51.444;6.484;2023-06-10T08:06:01;34.40;;;8.07;;
3843;SDS011;1937;51.444;6.484;2023-06-10T08:08:28;36.67;;;7.67;;
3843;SDS011;1937;51.444;6.484;2023-06-10T08:10:55;33.07;;;7.70;;
3843;SDS011;1937;51.444;6.484;2023-06-10T08:13:23;41.30;;;9.30;;
3843;SDS011;1937;51.444;6.484;2023-06-10T08:15:50;38.53;;;8.20;;
3843;SDS011;1937;51.444;6.484;2023-06-10T08:18:18;35.83;;;7.93;;
3843;SDS011;1937;51.444;6.484;2023-06-10T08:20:45;35.37;;;6.90;;
3843;SDS011;1937;51.444;6.484;2023-06-10T08:23:11;36.47;;;9.20;;
3843;SDS011;1937;51.444;6.484;2023-06-10T08:25:38;35.40;;;8.30;;
3843;SDS011;1937;51.444;6.484;2023-06-10T08:28:04;37.47;;;7.90;;
3843;SDS011;1937;51.444;6.484;2023-06-10T08:30:32;36.93;;;8.50;;
3843;SDS011;1937;51.444;6.484;2023-06-10T08:32:59;41.30;;;9.00;;
3843;SDS011;1937;51.444;6.484;2023-06-10T08:35:26;38.63;;;8.33;;
3843;SDS011;1937;51.444;6.484;2023-06-10T08:37:52;39.83;;;8.97;;
3843;SDS011;1937;51.444;6.484;2023-06-10T08:40:19;39.20;;;8.43;;
3843;SDS011;1937;51.444;6.484;2023-06-10T08:42:48;36.50;;;7.60;;
3843;SDS011;1937;51.444;6.484;2023-06-10T08:45:19;37.70;;;7.50;;
3843;SDS011;1937;51.444;6.484;2023-06-10T08:47:50;39.77;;;8.10;;
3843;SDS011;1937;51.444;6.484;2023-06-10T08:50:18;38.27;;;7.90;;
3843;SDS011;1937;51.444;6.484;2023-06-10T08:52:45;41.87;;;7.73;;
3843;SDS011;1937;51.444;6.484;2023-06-10T08:55:15;40.67;;;7.83;;
3843;SDS011;1937;51.444;6.484;2023-06-10T08:57:47;38.53;;;7.77;;
3843;SDS011;1937;51.444;6.484;2023-06-10T09:00:15;34.60;;;8.23;;
3843;SDS011;1937;51.444;6.484;2023-06-10T09:02:43;35.83;;;7.13;;
3843;SDS011;1937;51.444;6.484;2023-06-10T09:05:11;33.80;;;7.20;;
3843;SDS011;1937;51.444;6.484;2023-06-10T09:07:40;34.53;;;7.33;;
3843;SDS011;1937;51.444;6.484;2023-06-10T09:10:07;40.70;;;7.43;;
3843;SDS011;1937;51.444;6.484;2023-06-10T09:12:34;36.80;;;7.77;;
3843;SDS011;1937;51.444;6.484;2023-06-10T09:15:03;33.67;;;7.10;;
3843;SDS011;1937;51.444;6.484;2023-06-10T09:17:30;33.30;;;6.33;;
3843;SDS011;1937;51.444;6.484;2023-06-10T09:19:59;39.73;;;8.67;;
3843;SDS011;1937;51.444;6.484;2023-06-10T09:22:29;40.13;;;6.87;;
3843;SDS011;1937;51.444;6.484;2023-06-10T09:25:01;38.40;;;7.97;;
3843;SDS011;1937;51.444;6.484;2023-06-10T09:27:29;36.60;;;7.90;;
3843;SDS011;1937;51.444;6.484;2023-06-10T09:29:56;39.63;;;8.97;;
3843;SDS011;1937;51.444;6.484;2023-06-10T09:32:23;37.60;;;8.83;;
3843;SDS011;1937;51.444;6.484;2023-06-10T09:34:50;42.60;;;8.37;;
3843;SDS011;1937;51.444;6.484;2023-06-10T09:37:19;37.27;;;7.67;;
3843;SDS011;1937;51.444;6.484;2023-06-10T09:39:57;40.67;;;9.00;;
3843;SDS011;1937;51.444;6.484;2023-06-10T09:42:29;40.80;;;8.37;;
3843;SDS011;1937;51.444;6.484;2023-06-10T09:44:58;42.97;;;8.97;;
3843;SDS011;1937;51.444;6.484;2023-06-10T09:47:25;39.10;;;8.13;;
3843;SDS011;1937;51.444;6.484;2023-06-10T09:49:51;39.77;;;8.30;;
3843;SDS011;1937;51.444;6.484;2023-06-10T09:52:21;46.73;;;9.90;;
3843;SDS011;1937;51.444;6.484;2023-06-10T09:54:48;36.97;;;7.63;;
3843;SDS011;1937;51.444;6.484;2023-06-10T09:57:16;39.70;;;7.83;;
3843;SDS011;1937;51.444;6.484;2023-06-10T09:59:43;39.07;;;8.10;;
3843;SDS011;1937;51.444;6.484;2023-06-10T10:02:13;40.73;;;8.37;;
3843;SDS011;1937;51.444;6.484;2023-06-10T10:04:40;38.30;;;7.50;;
3843;SDS011;1937;51.444;6.484;2023-06-10T10:07:07;47.27;;;8.70;;
3843;SDS011;1937;51.444;6.484;2023-06-10T10:09:35;38.33;;;9.00;;
3843;SDS011;1937;51.444;6.484;2023-06-10T10:12:02;39.87;;;7.83;;
3843;SDS011;1937;51.444;6.484;2023-06-10T10:14:32;39.97;;;8.90;;
3843;SDS011;1937;51.444;6.484;2023-06-10T10:17:01;46.57;;;9.20;;
3843;SDS011;1937;51.444;6.484;2023-06-10T10:19:31;44.63;;;9.13;;
3843;SDS011;1937;51.444;6.484;2023-06-10T10:22:01;40.23;;;8.50;;
3843;SDS011;1937;51.444;6.484;2023-06-10T10:24:31;37.97;;;8.47;;
3843;SDS011;1937;51.444;6.484;2023-06-10T10:27:00;37.53;;;8.00;;
3843;SDS011;1937;51.444;6.484;2023-06-10T10:29:33;39.07;;;7.90;;
3843;SDS011;1937;51.444;6.484;2023-06-10T10:32:04;38.90;;;7.57;;
3843;SDS011;1937;51.444;6.484;2023-06-10T10:34:35;39.27;;;9.63;;
3843;SDS011;1937;51.444;6.484;2023-06-10T10:37:08;39.23;;;8.87;;
3843;SDS011;1937;51.444;6.484;2023-06-10T10:39:35;41.90;;;8.27;;
3843;SDS011;1937;51.444;6.484;2023-06-10T10:42:02;37.70;;;8.60;;
3843;SDS011;1937;51.444;6.484;2023-06-10T10:44:36;40.57;;;9.20;;
3843;SDS011;1937;51.444;6.484;2023-06-10T10:47:04;42.83;;;11.63;;
3843;SDS011;1937;51.444;6.484;2023-06-10T10:49:35;43.60;;;10.73;;
3843;SDS011;1937;51.444;6.484;2023-06-10T10:52:03;41.17;;;8.87;;
3843;SDS011;1937;51.444;6.484;2023-06-10T10:54:32;40.30;;;8.10;;
3843;SDS011;1937;51.444;6.484;2023-06-10T10:57:12;43.60;;;12.80;;
3843;SDS011;1937;51.444;6.484;2023-06-10T10:59:44;40.57;;;9.13;;
3843;SDS011;1937;51.444;6.484;2023-06-10T11:02:32;42.77;;;10.17;;
3843;SDS011;1937;51.444;6.484;2023-06-10T11:05:00;37.40;;;7.30;;
3843;SDS011;1937;51.444;6.484;2023-06-10T11:07:29;55.23;;;9.23;;
3843;SDS011;1937;51.444;6.484;2023-06-10T11:09:57;41.87;;;9.17;;
3843;SDS011;1937;51.444;6.484;2023-06-10T11:12:25;41.37;;;9.30;;
3843;SDS011;1937;51.444;6.484;2023-06-10T11:14:54;39.60;;;9.20;;
3843;SDS011;1937;51.444;6.484;2023-06-10T11:17:21;39.27;;;10.70;;
3843;SDS011;1937;51.444;6.484;2023-06-10T11:19:48;35.53;;;7.27;;
3843;SDS011;1937;51.444;6.484;2023-06-10T11:22:16;42.67;;;7.70;;
3843;SDS011;1937;51.444;6.484;2023-06-10T11:24:46;44.07;;;10.90;;
3843;SDS011;1937;51.444;6.484;2023-06-10T11:27:14;42.50;;;7.93;;
3843;SDS011;1937;51.444;6.484;2023-06-10T11:29:56;44.23;;;8.37;;
3843;SDS011;1937;51.444;6.484;2023-06-10T11:32:24;43.27;;;8.60;;
3843;SDS011;1937;51.444;6.484;2023-06-10T11:34:56;44.90;;;7.67;;
3843;SDS011;1937;51.444;6.484;2023-06-10T11:37:23;43.50;;;7.70;;
3843;SDS011;1937;51.444;6.484;2023-06-10T11:39:51;49.37;;;9.60;;
3843;SDS011;1937;51.444;6.484;2023-06-10T11:42:18;44.30;;;8.17;;
3843;SDS011;1937;51.444;6.484;2023-06-10T11:44:48;45.97;;;8.37;;
3843;SDS011;1937;51.444;6.484;2023-06-10T11:47:17;44.10;;;8.70;;
3843;SDS011;1937;51.444;6.484;2023-06-10T11:49:45;44.90;;;8.30;;
3843;SDS011;1937;51.444;6.484;2023-06-10T11:52:12;43.80;;;7.73;;
3843;SDS011;1937;51.444;6.484;2023-06-10T11:54:38;42.43;;;6.93;;
3843;SDS011;1937;51.444;6.484;2023-06-10T11:57:05;43.17;;;7.70;;
3843;SDS011;1937;51.444;6.484;2023-06-10T11:59:33;45.90;;;7.40;;
3843;SDS011;1937;51.444;6.484;2023-06-10T12:02:00;46.97;;;8.27;;
3843;SDS011;1937;51.444;6.484;2023-06-10T12:04:32;48.13;;;8.70;;
3843;SDS011;1937;51.444;6.484;2023-06-10T12:06:58;47.10;;;8.60;;
3843;SDS011;1937;51.444;6.484;2023-06-10T12:09:25;46.77;;;8.20;;
3843;SDS011;1937;51.444;6.484;2023-06-10T12:11:54;47.03;;;7.63;;
3843;SDS011;1937;51.444;6.484;2023-06-10T12:17:22;45.47;;;8.53;;
3843;SDS011;1937;51.444;6.484;2023-06-10T12:19:51;45.63;;;7.40;;
3843;SDS011;1937;51.444;6.484;2023-06-10T12:22:17;47.10;;;7.90;;
3843;SDS011;1937;51.444;6.484;2023-06-10T12:24:45;45.60;;;7.30;;
3843;SDS011;1937;51.444;6.484;2023-06-10T12:27:24;45.50;;;7.70;;
3843;SDS011;1937;51.444;6.484;2023-06-10T12:29:53;46.40;;;7.97;;
3843;SDS011;1937;51.444;6.484;2023-06-10T12:32:20;52.90;;;7.97;;
3843;SDS011;1937;51.444;6.484;2023-06-10T12:34:51;47.47;;;7.47;;
3843;SDS011;1937;51.444;6.484;2023-06-10T12:37:29;46.73;;;7.03;;
3843;SDS011;1937;51.444;6.484;2023-06-10T12:39:59;49.03;;;7.43;;
3843;SDS011;1937;51.444;6.484;2023-06-10T12:42:27;52.80;;;9.00;;
3843;SDS011;1937;51.444;6.484;2023-06-10T12:44:55;49.33;;;8.80;;
3843;SDS011;1937;51.444;6.484;2023-06-10T12:47:28;48.40;;;8.30;;
3843;SDS011;1937;51.444;6.484;2023-06-10T12:49:59;60.10;;;11.67;;
3843;SDS011;1937;51.444;6.484;2023-06-10T12:52:25;49.63;;;9.77;;
3843;SDS011;1937;51.444;6.484;2023-06-10T12:54:52;55.23;;;10.03;;
3843;SDS011;1937;51.444;6.484;2023-06-10T12:57:19;46.47;;;7.90;;
3843;SDS011;1937;51.444;6.484;2023-06-10T12:59:46;46.90;;;8.37;;
3843;SDS011;1937;51.444;6.484;2023-06-10T13:02:17;46.67;;;7.13;;
3843;SDS011;1937;51.444;6.484;2023-06-10T13:04:44;54.13;;;9.60;;
3843;SDS011;1937;51.444;6.484;2023-06-10T13:07:12;49.07;;;7.63;;
3843;SDS011;1937;51.444;6.484;2023-06-10T13:09:39;48.90;;;8.70;;
3843;SDS011;1937;51.444;6.484;2023-06-10T13:12:06;49.77;;;8.70;;
3843;SDS011;1937;51.444;6.484;2023-06-10T13:14:34;48.90;;;8.00;;
3843;SDS011;1937;51.444;6.484;2023-06-10T13:17:02;52.90;;;9.60;;
3843;SDS011;1937;51.444;6.484;2023-06-10T13:19:30;48.77;;;8.57;;
3843;SDS011;1937;51.444;6.484;2023-06-10T13:21:57;54.23;;;9.27;;
3843;SDS011;1937;51.444;6.484;2023-06-10T13:24:25;49.37;;;8.77;;
3843;SDS011;1937;51.444;6.484;2023-06-10T13:26:52;48.60;;;9.30;;
3843;SDS011;1937;51.444;6.484;2023-06-10T13:29:19;46.97;;;7.77;;
3843;SDS011;1937;51.444;6.484;2023-06-10T13:31:46;47.40;;;7.20;;
3843;SDS011;1937;51.444;6.484;2023-06-10T13:34:13;53.63;;;10.80;;
3843;SDS011;1937;51.444;6.484;2023-06-10T13:36:39;49.20;;;9.00;;
3843;SDS011;1937;51.444;6.484;2023-06-10T13:39:06;48.80;;;7.83;;
3843;SDS011;1937;51.444;6.484;2023-06-10T13:41:34;45.77;;;7.70;;
3843;SDS011;1937;51.444;6.484;2023-06-10T13:44:01;46.53;;;8.27;;
3843;SDS011;1937;51.444;6.484;2023-06-10T13:46:27;43.40;;;7.80;;
3843;SDS011;1937;51.444;6.484;2023-06-10T13:48:54;44.83;;;7.40;;
3843;SDS011;1937;51.444;6.484;2023-06-10T13:51:21;55.30;;;8.70;;
3843;SDS011;1937;51.444;6.484;2023-06-10T13:53:47;47.00;;;8.23;;
3843;SDS011;1937;51.444;6.484;2023-06-10T13:56:15;48.90;;;8.33;;
3843;SDS011;1937;51.444;6.484;2023-06-10T13:58:43;51.47;;;7.83;;
3843;SDS011;1937;51.444;6.484;2023-06-10T14:01:10;48.73;;;8.10;;
3843;SDS011;1937;51.444;6.484;2023-06-10T14:03:36;47.77;;;8.53;;
3843;SDS011;1937;51.444;6.484;2023-06-10T14:06:03;46.97;;;8.67;;
3843;SDS011;1937;51.444;6.484;2023-06-10T14:08:30;47.83;;;8.77;;
3843;SDS011;1937;51.444;6.484;2023-06-10T14:10:56;46.80;;;8.10;;
3843;SDS011;1937;51.444;6.484;2023-06-10T14:13:23;46.47;;;8.60;;
3843;SDS011;1937;51.444;6.484;2023-06-10T14:15:51;47.73;;;8.17;;
3843;SDS011;1937;51.444;6.484;2023-06-10T14:18:18;49.53;;;8.30;;
3843;SDS011;1937;51.444;6.484;2023-06-10T14:20:44;46.80;;;8.17;;
3843;SDS011;1937;51.444;6.484;2023-06-10T14:23:11;48.43;;;8.27;;
3843;SDS011;1937;51.444;6.484;2023-06-10T14:25:38;46.70;;;8.60;;
3843;SDS011;1937;51.444;6.484;2023-06-10T14:28:04;49.80;;;7.90;;
3843;SDS011;1937;51.444;6.484;2023-06-10T14:30:31;48.93;;;8.53;;
3843;SDS011;1937;51.444;6.484;2023-06-10T14:32:59;318.53;;;303.20;;
3843;SDS011;1937;51.444;6.484;2023-06-10T14:35:25;307.73;;;293.13;;
3843;SDS011;1937;51.444;6.484;2023-06-10T14:37:52;240.60;;;227.97;;
3843;SDS011;1937;51.444;6.484;2023-06-10T14:40:18;196.23;;;185.40;;
3843;SDS011;1937;51.444;6.484;2023-06-10T14:42:46;196.53;;;185.43;;
3843;SDS011;1937;51.444;6.484;2023-06-10T14:45:13;169.43;;;158.93;;
3843;SDS011;1937;51.444;6.484;2023-06-10T14:47:40;44.97;;;27.00;;
3843;SDS011;1937;51.444;6.484;2023-06-10T14:50:08;36.80;;;7.40;;
3843;SDS011;1937;51.444;6.484;2023-06-10T14:52:35;37.50;;;7.50;;
3843;SDS011;1937;51.444;6.484;2023-06-10T14:55:02;37.07;;;7.97;;
3843;SDS011;1937;51.444;6.484;2023-06-10T14:57:29;36.10;;;7.73;;
3843;SDS011;1937;51.444;6.484;2023-06-10T14:59:57;40.00;;;8.30;;
3843;SDS011;1937;51.444;6.484;2023-06-10T15:02:23;36.47;;;7.97;;
3843;SDS011;1937;51.444;6.484;2023-06-10T15:04:50;38.33;;;7.40;;